createdAt,value
2018-09-06T00:00:47.642Z,19.93
2018-09-06T00:03:31.967Z,12.10
2018-09-06T00:06:16.555Z,16.90
2018-09-06T00:09:01.478Z,17.80
2018-09-06T00:11:46.140Z,19.13
2018-09-06T00:14:29.923Z,19.13
2018-09-06T00:17:13.987Z,15.60
2018-09-06T00:19:58.380Z,17.83
2018-09-06T00:22:42.137Z,17.40
2018-09-06T00:25:26.313Z,14.90
2018-09-06T00:28:10.520Z,17.90
2018-09-06T00:30:54.300Z,17.60
2018-09-06T00:33:37.779Z,20.13
2018-09-06T00:36:21.431Z,15.73
2018-09-06T00:39:07.284Z,17.80
2018-09-06T00:41:51.059Z,18.30
2018-09-06T00:44:34.795Z,17.97
2018-09-06T00:47:18.531Z,17.23
2018-09-06T00:50:02.580Z,18.60
2018-09-06T00:52:48.400Z,18.30
2018-09-06T00:55:32.182Z,19.80
2018-09-06T00:58:16.697Z,19.10
2018-09-06T01:01:00.403Z,19.00
2018-09-06T01:03:44.150Z,23.87
2018-09-06T01:06:28.054Z,38.70
2018-09-06T01:09:12.149Z,43.67
2018-09-06T01:11:55.857Z,18.30
2018-09-06T01:14:40.338Z,31.17
2018-09-06T01:17:24.039Z,16.90
2018-09-06T01:20:07.898Z,25.53
2018-09-06T01:22:51.406Z,19.63
2018-09-06T01:25:40.466Z,43.03
2018-09-06T01:28:24.222Z,24.03
2018-09-06T01:31:08.822Z,19.10
2018-09-06T01:33:52.902Z,23.40
2018-09-06T01:36:42.335Z,17.60
2018-09-06T01:39:26.936Z,21.60
2018-09-06T01:42:11.188Z,17.10
2018-09-06T01:44:55.515Z,26.20
2018-09-06T01:47:40.066Z,54.17
2018-09-06T01:50:24.737Z,17.73
2018-09-06T01:53:09.184Z,16.40
2018-09-06T01:55:53.373Z,54.43
2018-09-06T01:58:37.472Z,27.33
2018-09-06T02:01:21.251Z,24.00
2018-09-06T02:04:05.054Z,19.20
2018-09-06T02:06:49.567Z,22.87
2018-09-06T02:09:33.346Z,27.97
2018-09-06T02:12:18.154Z,23.03
2018-09-06T02:15:01.909Z,21.30
2018-09-06T02:17:45.978Z,19.23
2018-09-06T02:20:29.926Z,19.10
2018-09-06T02:23:14.027Z,19.13
2018-09-06T02:25:58.071Z,23.00
2018-09-06T02:28:42.231Z,16.77
2018-09-06T02:31:26.279Z,23.00
2018-09-06T02:34:10.941Z,18.73
2018-09-06T02:36:55.065Z,24.17
2018-09-06T02:39:38.830Z,19.50
2018-09-06T02:42:23.013Z,26.53
2018-09-06T02:45:07.666Z,20.20
2018-09-06T02:47:54.725Z,20.10
2018-09-06T02:50:44.093Z,18.70
2018-09-06T02:53:30.098Z,20.23
2018-09-06T02:56:14.996Z,15.50
2018-09-06T02:58:59.042Z,17.90
2018-09-06T03:01:43.043Z,22.40
2018-09-06T03:04:27.186Z,18.70
2018-09-06T03:07:11.485Z,22.77
2018-09-06T03:09:55.606Z,19.80
2018-09-06T03:12:40.005Z,16.23
2018-09-06T03:15:24.091Z,23.03
2018-09-06T03:18:08.239Z,24.10
2018-09-06T03:20:52.125Z,18.67
2018-09-06T03:23:36.171Z,19.50
2018-09-06T03:26:21.096Z,17.43
2018-09-06T03:29:05.654Z,16.30
2018-09-06T03:31:49.701Z,17.20
2018-09-06T03:34:33.888Z,17.47
2018-09-06T03:37:18.022Z,15.07
2018-09-06T03:40:02.453Z,19.13
2018-09-06T03:42:46.702Z,20.67
2018-09-06T03:45:31.264Z,16.70
2018-09-06T03:48:14.987Z,14.53
2018-09-06T03:50:59.073Z,18.40
2018-09-06T03:53:43.291Z,21.67
2018-09-06T03:56:28.134Z,16.37
2018-09-06T03:59:12.287Z,17.30
2018-09-06T04:01:55.993Z,16.60
2018-09-06T04:04:40.505Z,17.10
2018-09-06T04:07:24.240Z,18.80
2018-09-06T04:10:08.410Z,17.97
2018-09-06T04:12:52.627Z,16.63
2018-09-06T04:15:37.196Z,17.00
2018-09-06T04:18:20.972Z,19.33
2018-09-06T04:21:05.110Z,20.73
2018-09-06T04:23:48.954Z,19.00
2018-09-06T04:26:33.054Z,18.73
2018-09-06T04:29:17.215Z,19.23
2018-09-06T04:32:00.943Z,13.70
2018-09-06T04:34:44.732Z,17.20
2018-09-06T04:37:28.561Z,17.40
2018-09-06T04:40:12.441Z,23.40
2018-09-06T04:42:56.367Z,16.90
2018-09-06T04:45:40.167Z,16.43
2018-09-06T04:48:23.886Z,22.00
2018-09-06T04:51:07.758Z,23.63
2018-09-06T04:53:51.816Z,17.80
2018-09-06T04:56:35.874Z,24.43
2018-09-06T04:59:19.645Z,22.60
2018-09-06T05:02:03.397Z,21.53
2018-09-06T05:04:47.187Z,17.23
2018-09-06T05:07:30.939Z,18.43
2018-09-06T05:10:15.007Z,24.10
2018-09-06T05:12:58.802Z,21.10
2018-09-06T05:15:42.833Z,23.87
2018-09-06T05:18:26.638Z,16.97
2018-09-06T05:21:10.109Z,22.27
2018-09-06T05:23:53.786Z,30.63
2018-09-06T05:26:37.868Z,18.63
2018-09-06T05:29:21.895Z,21.67
2018-09-06T05:32:05.620Z,22.23
2018-09-06T05:34:49.947Z,20.50
2018-09-06T05:37:33.734Z,20.90
2018-09-06T05:40:17.507Z,21.70
2018-09-06T05:43:01.640Z,18.90
2018-09-06T05:45:45.193Z,26.57
2018-09-06T05:48:28.870Z,26.93
2018-09-06T05:51:12.614Z,21.50
2018-09-06T05:53:57.065Z,25.70
2018-09-06T05:56:40.828Z,25.00
2018-09-06T05:59:24.347Z,20.23
2018-09-06T06:02:07.994Z,20.60
2018-09-06T06:04:51.802Z,14.90
2018-09-06T06:07:47.072Z,17.37
2018-09-06T06:10:31.165Z,22.03
2018-09-06T06:13:15.658Z,17.80
2018-09-06T06:15:59.817Z,22.07
2018-09-06T06:18:44.810Z,15.97
2018-09-06T06:21:28.553Z,17.40
2018-09-06T06:24:12.692Z,20.20
2018-09-06T06:26:56.402Z,15.63
2018-09-06T06:29:40.198Z,20.72
2018-09-06T06:32:24.397Z,15.77
2018-09-06T06:35:08.772Z,20.77
2018-09-06T06:37:52.787Z,19.87
2018-09-06T06:40:36.893Z,17.53
2018-09-06T06:43:21.094Z,13.40
2018-09-06T06:46:06.629Z,13.33
2018-09-06T06:48:50.673Z,17.70
2018-09-06T06:51:40.419Z,13.90
2018-09-06T06:54:25.131Z,17.10
2018-09-06T06:57:08.876Z,15.20
2018-09-06T06:59:52.728Z,20.53
2018-09-06T07:02:36.737Z,18.50
2018-09-06T07:05:24.632Z,14.07
2018-09-06T07:08:09.595Z,14.57
2018-09-06T07:10:53.712Z,13.37
2018-09-06T07:13:37.910Z,19.10
2018-09-06T07:16:22.012Z,19.83
2018-09-06T07:19:05.816Z,19.13
2018-09-06T07:21:49.554Z,24.23
2018-09-06T07:24:33.285Z,22.33
2018-09-06T07:27:17.166Z,21.60
2018-09-06T07:30:01.536Z,19.23
2018-09-06T07:32:46.746Z,19.20
2018-09-06T07:35:31.579Z,13.20
2018-09-06T07:38:15.347Z,13.87
2018-09-06T07:40:59.441Z,13.70
2018-09-06T07:43:43.696Z,15.77
2018-09-06T07:46:27.750Z,13.93
2018-09-06T07:49:12.046Z,14.30
2018-09-06T07:51:56.217Z,13.03
2018-09-06T07:54:40.288Z,23.00
2018-09-06T07:57:23.975Z,15.63
2018-09-06T08:00:08.129Z,14.63
2018-09-06T08:02:51.822Z,13.57
2018-09-06T08:05:35.542Z,16.73
2018-09-06T08:08:19.583Z,14.40
2018-09-06T08:11:03.295Z,14.17
2018-09-06T08:13:47.576Z,16.17
2018-09-06T08:16:31.322Z,13.00
2018-09-06T08:19:15.047Z,15.77
2018-09-06T08:21:58.823Z,17.30
2018-09-06T08:24:42.541Z,16.40
2018-09-06T08:27:26.276Z,16.73
2018-09-06T08:30:10.504Z,14.23
2018-09-06T08:32:54.274Z,14.27
2018-09-06T08:35:38.082Z,11.50
2018-09-06T08:38:21.821Z,13.00
2018-09-06T08:41:05.645Z,16.90
2018-09-06T08:43:49.417Z,13.30
2018-09-06T08:46:33.598Z,16.60
2018-09-06T08:49:17.429Z,13.80
2018-09-06T08:52:01.251Z,13.30
2018-09-06T08:54:44.942Z,13.70
2018-09-06T08:57:29.116Z,10.97
2018-09-06T09:00:19.568Z,14.03
2018-09-06T09:03:03.295Z,12.07
2018-09-06T09:05:47.369Z,11.40
2018-09-06T09:08:31.460Z,10.83
2018-09-06T09:11:14.937Z,10.57
2018-09-06T09:13:58.577Z,13.27
2018-09-06T09:16:42.323Z,14.43
2018-09-06T09:19:26.047Z,9.83
2018-09-06T09:22:09.871Z,10.67
2018-09-06T09:24:53.540Z,12.40
2018-09-06T09:27:37.304Z,11.70
2018-09-06T09:30:21.011Z,10.10
2018-09-06T09:33:04.785Z,12.07
2018-09-06T09:35:48.511Z,9.60
2018-09-06T09:38:32.283Z,10.33
2018-09-06T09:41:16.371Z,11.90
2018-09-06T09:44:00.398Z,11.70
2018-09-06T09:49:27.443Z,10.20
2018-09-06T09:52:11.428Z,15.27
2018-09-06T09:54:55.174Z,13.50
2018-09-06T09:57:39.234Z,13.73
2018-09-06T10:00:28.863Z,12.40
2018-09-06T10:03:17.923Z,12.77
2018-09-06T10:06:07.868Z,11.73
2018-09-06T10:08:56.942Z,14.83
2018-09-06T10:11:40.727Z,11.33
2018-09-06T10:14:24.535Z,9.80
2018-09-06T10:17:08.712Z,13.80
2018-09-06T10:19:52.550Z,17.33
2018-09-06T10:22:36.490Z,10.50
2018-09-06T10:25:20.518Z,14.33
2018-09-06T10:28:04.847Z,12.57
2018-09-06T10:30:48.946Z,12.97
2018-09-06T10:33:33.553Z,10.83
2018-09-06T10:36:18.066Z,15.40
2018-09-06T10:39:02.593Z,13.10
2018-09-06T10:41:46.719Z,13.13
2018-09-06T10:44:30.479Z,13.57
2018-09-06T10:47:14.730Z,13.87
2018-09-06T10:49:58.451Z,13.03
2018-09-06T10:52:41.918Z,13.10
2018-09-06T10:55:25.616Z,12.83
2018-09-06T10:58:09.639Z,12.60
2018-09-06T11:00:58.751Z,15.33
2018-09-06T11:03:43.242Z,11.73
2018-09-06T11:06:27.002Z,9.60
2018-09-06T11:09:12.120Z,23.00
2018-09-06T11:11:56.326Z,10.23
2018-09-06T11:14:39.890Z,8.90
2018-09-06T11:17:24.234Z,12.53
2018-09-06T11:20:08.412Z,10.27
2018-09-06T11:22:52.278Z,10.63
2018-09-06T11:25:36.572Z,16.43
2018-09-06T11:28:20.291Z,11.50
2018-09-06T11:31:04.357Z,71.83
2018-09-06T11:33:48.081Z,21.23
2018-09-06T11:36:32.244Z,12.63
2018-09-06T11:39:16.442Z,14.17
2018-09-06T11:42:00.205Z,9.87
2018-09-06T11:44:44.302Z,10.30
2018-09-06T11:47:28.513Z,15.03
2018-09-06T11:50:12.327Z,8.70
2018-09-06T11:52:56.931Z,13.13
2018-09-06T11:55:40.709Z,9.10
2018-09-06T11:58:25.176Z,15.07
2018-09-06T12:01:09.190Z,11.67
2018-09-06T12:03:53.729Z,14.00
2018-09-06T12:06:38.095Z,11.87
2018-09-06T12:09:22.140Z,9.20
2018-09-06T12:12:06.219Z,13.20
2018-09-06T12:14:50.028Z,10.23
2018-09-06T12:17:34.165Z,11.27
2018-09-06T12:20:18.359Z,11.00
2018-09-06T12:23:02.462Z,11.00
2018-09-06T12:25:46.340Z,14.10
2018-09-06T12:28:30.459Z,10.97
2018-09-06T12:31:14.501Z,8.60
2018-09-06T12:33:59.363Z,13.20
2018-09-06T12:36:43.106Z,10.43
2018-09-06T12:39:27.130Z,14.20
2018-09-06T12:42:12.506Z,10.30
2018-09-06T12:44:56.729Z,10.87
2018-09-06T12:47:40.830Z,14.30
2018-09-06T12:50:25.468Z,11.53
2018-09-06T12:53:10.661Z,12.47
2018-09-06T12:55:54.413Z,9.83
2018-09-06T12:58:38.215Z,13.23
2018-09-06T13:01:22.874Z,12.83
2018-09-06T13:04:06.899Z,9.50
2018-09-06T13:06:50.665Z,10.63
2018-09-06T13:09:34.375Z,13.63
2018-09-06T13:12:19.063Z,10.67
2018-09-06T13:15:03.239Z,9.47
2018-09-06T13:17:47.084Z,17.03
2018-09-06T13:20:30.783Z,16.63
2018-09-06T13:23:14.501Z,11.23
2018-09-06T13:25:58.433Z,18.90
2018-09-06T13:28:42.058Z,14.60
2018-09-06T13:31:27.709Z,11.23
2018-09-06T13:34:11.266Z,17.27
2018-09-06T13:36:55.601Z,10.47
2018-09-06T13:39:39.348Z,12.60
2018-09-06T13:42:22.850Z,11.63
2018-09-06T13:45:06.547Z,11.23
2018-09-06T13:47:50.451Z,10.97
2018-09-06T13:50:34.192Z,14.90
2018-09-06T13:53:17.912Z,13.20
2018-09-06T13:56:01.599Z,17.30
2018-09-06T13:58:45.354Z,27.53
2018-09-06T14:01:29.059Z,26.20
2018-09-06T14:04:12.885Z,26.07
2018-09-06T14:06:56.727Z,24.67
2018-09-06T14:09:41.800Z,23.40
2018-09-06T14:12:25.831Z,17.73
2018-09-06T14:15:09.931Z,20.47
2018-09-06T14:17:53.819Z,17.53
2018-09-06T14:20:37.511Z,21.57
2018-09-06T14:23:21.904Z,28.33
2018-09-06T14:26:07.550Z,21.13
2018-09-06T14:28:52.353Z,27.30
2018-09-06T14:31:37.862Z,27.10
2018-09-06T14:34:23.235Z,31.93
2018-09-06T14:37:09.528Z,24.97
2018-09-06T14:39:54.601Z,22.87
2018-09-06T14:42:38.640Z,23.33
2018-09-06T14:45:23.794Z,28.30
2018-09-06T14:48:08.251Z,30.33
2018-09-06T14:50:52.807Z,32.47
2018-09-06T14:53:36.850Z,23.73
2018-09-06T14:56:21.775Z,30.67
2018-09-06T14:59:06.791Z,25.80
2018-09-06T15:01:51.717Z,28.87
2018-09-06T15:04:36.670Z,25.13
2018-09-06T15:07:23.307Z,24.50
2018-09-06T15:10:10.541Z,27.07
2018-09-06T15:12:54.289Z,26.73
2018-09-06T15:15:40.434Z,26.43
2018-09-06T15:18:24.158Z,23.57
2018-09-06T15:21:08.089Z,23.43
2018-09-06T15:23:52.678Z,33.30
2018-09-06T15:26:36.839Z,25.80
2018-09-06T15:29:20.874Z,29.47
2018-09-06T15:32:04.951Z,26.87
2018-09-06T15:34:48.670Z,25.87
2018-09-06T15:37:32.410Z,32.53
2018-09-06T15:40:16.726Z,36.00
2018-09-06T15:43:02.459Z,28.10
2018-09-06T15:45:47.231Z,27.57
2018-09-06T15:48:36.078Z,24.73
2018-09-06T15:51:20.380Z,26.33
2018-09-06T15:54:07.766Z,24.90
2018-09-06T15:56:51.451Z,31.40
2018-09-06T15:59:37.386Z,28.03
2018-09-06T16:02:21.174Z,27.03
2018-09-06T16:05:05.266Z,25.67
2018-09-06T16:07:49.312Z,26.70
2018-09-06T16:10:33.847Z,24.80
2018-09-06T16:13:17.709Z,30.97
2018-09-06T16:16:02.130Z,29.73
2018-09-06T16:18:46.059Z,32.10
2018-09-06T16:21:29.905Z,31.33
2018-09-06T16:24:13.765Z,31.40
2018-09-06T16:26:57.476Z,24.43
2018-09-06T16:29:41.226Z,24.90
2018-09-06T16:32:25.361Z,25.97
2018-09-06T16:35:09.522Z,25.73
2018-09-06T16:37:53.521Z,25.73
2018-09-06T16:40:37.304Z,29.83
2018-09-06T16:43:21.626Z,24.40
2018-09-06T16:46:05.692Z,22.30
2018-09-06T16:48:49.509Z,22.63
2018-09-06T16:51:33.574Z,27.17
2018-09-06T16:54:17.319Z,24.00
2018-09-06T16:57:01.034Z,22.43
2018-09-06T16:59:44.808Z,24.10
2018-09-06T17:02:29.034Z,26.60
2018-09-06T17:05:13.186Z,23.13
2018-09-06T17:07:57.233Z,26.97
2018-09-06T17:10:40.971Z,21.97
2018-09-06T17:13:25.185Z,29.17
2018-09-06T17:16:08.850Z,24.30
2018-09-06T17:18:53.110Z,21.20
2018-09-06T17:21:37.503Z,21.57
2018-09-06T17:24:21.753Z,27.17
2018-09-06T17:27:05.553Z,29.87
2018-09-06T17:29:49.335Z,23.77
2018-09-06T17:32:33.506Z,24.27
2018-09-06T17:35:17.224Z,29.20
2018-09-06T17:38:01.241Z,26.00
2018-09-06T17:40:45.358Z,26.80
2018-09-06T17:43:29.421Z,30.87
2018-09-06T17:46:13.461Z,36.80
2018-09-06T17:48:58.167Z,29.00
2018-09-06T17:51:42.207Z,27.37
2018-09-06T17:54:26.265Z,31.30
2018-09-06T17:57:09.989Z,29.10
2018-09-06T17:59:54.041Z,29.40
2018-09-06T18:02:37.827Z,32.20
2018-09-06T18:05:22.454Z,31.37
2018-09-06T18:08:06.234Z,33.47
2018-09-06T18:10:49.988Z,28.50
2018-09-06T18:13:33.719Z,27.87
2018-09-06T18:16:17.442Z,30.43
2018-09-06T18:19:01.193Z,25.63
2018-09-06T18:21:44.922Z,30.33
2018-09-06T18:24:28.677Z,27.27
2018-09-06T18:27:12.433Z,27.23
2018-09-06T18:29:56.692Z,26.47
2018-09-06T18:32:40.823Z,31.00
2018-09-06T18:35:25.457Z,30.63
2018-09-06T18:38:09.434Z,28.10
2018-09-06T18:40:53.227Z,28.30
2018-09-06T18:43:36.783Z,25.00
2018-09-06T18:46:20.401Z,27.80
2018-09-06T18:49:04.790Z,25.37
2018-09-06T18:51:49.201Z,25.13
2018-09-06T18:54:32.747Z,23.07
2018-09-06T18:57:16.422Z,26.47
2018-09-06T19:00:01.262Z,25.33
2018-09-06T19:02:45.019Z,27.93
2018-09-06T19:05:28.752Z,30.37
2018-09-06T19:08:12.810Z,27.03
2018-09-06T19:10:56.813Z,27.60
2018-09-06T19:13:40.899Z,31.27
2018-09-06T19:16:24.703Z,32.93
2018-09-06T19:19:08.919Z,27.53
2018-09-06T19:21:52.671Z,32.70
2018-09-06T19:24:36.797Z,33.80
2018-09-06T19:27:20.524Z,30.33
2018-09-06T19:30:04.619Z,29.80
2018-09-06T19:32:48.818Z,35.43
2018-09-06T19:35:33.557Z,33.03
2018-09-06T19:38:17.321Z,29.77
2018-09-06T19:41:01.446Z,33.43
2018-09-06T19:43:45.182Z,35.87
2018-09-06T19:46:29.692Z,34.70
2018-09-06T19:49:13.889Z,32.93
2018-09-06T19:51:57.906Z,34.93
2018-09-06T19:54:42.021Z,38.93
2018-09-06T19:57:26.078Z,35.40
2018-09-06T20:00:10.227Z,39.63
2018-09-06T20:02:54.192Z,34.00
2018-09-06T20:05:37.920Z,38.47
2018-09-06T20:08:21.968Z,37.40
2018-09-06T20:11:05.997Z,35.07
2018-09-06T20:13:50.250Z,33.90
2018-09-06T20:16:34.404Z,35.87
2018-09-06T20:19:18.562Z,39.83
2018-09-06T20:22:02.600Z,41.77
2018-09-06T20:24:46.045Z,47.43
2018-09-06T20:27:29.672Z,38.23
2018-09-06T20:30:13.376Z,37.67
2018-09-06T20:32:57.414Z,36.13
2018-09-06T20:35:41.483Z,37.87
2018-09-06T20:38:25.247Z,41.37
2018-09-06T20:41:09.624Z,37.70
2018-09-06T20:43:53.803Z,37.93
2018-09-06T20:46:37.988Z,39.33
2018-09-06T20:49:22.130Z,40.47
2018-09-06T20:52:06.691Z,37.80
2018-09-06T20:54:50.429Z,42.93
2018-09-06T20:57:34.160Z,38.73
2018-09-06T21:00:17.903Z,39.00
2018-09-06T21:03:02.337Z,39.07
2018-09-06T21:05:46.095Z,36.60
2018-09-06T21:08:30.764Z,41.63
2018-09-06T21:11:14.473Z,36.00
2018-09-06T21:13:58.254Z,45.80
2018-09-06T21:16:42.302Z,40.17
2018-09-06T21:19:26.067Z,42.00
2018-09-06T21:22:09.859Z,38.13
2018-09-06T21:24:54.028Z,38.37
2018-09-06T21:27:37.764Z,39.37
2018-09-06T21:30:22.117Z,36.80
2018-09-06T21:33:06.215Z,40.73
2018-09-06T21:35:53.464Z,39.47
2018-09-06T21:38:37.844Z,43.00
2018-09-06T21:41:21.765Z,46.33
2018-09-06T21:44:06.190Z,48.70
2018-09-06T21:46:50.251Z,51.90
2018-09-06T21:49:33.998Z,51.43
2018-09-06T21:52:18.511Z,56.10
2018-09-06T21:55:02.370Z,52.87
2018-09-06T21:57:46.152Z,56.57
2018-09-06T22:00:30.281Z,57.23
2018-09-06T22:04:22.959Z,56.90
2018-09-06T22:07:06.662Z,56.03
2018-09-06T22:09:51.309Z,58.80
2018-09-06T22:12:35.146Z,60.80
2018-09-06T22:15:19.159Z,59.57
2018-09-06T22:18:02.900Z,60.83
2018-09-06T22:20:46.747Z,58.10
2018-09-06T22:23:30.531Z,63.00
2018-09-06T22:26:14.633Z,62.50
2018-09-06T22:28:58.543Z,64.87
2018-09-06T22:31:42.509Z,59.60
2018-09-06T22:34:26.631Z,71.53
2018-09-06T22:37:10.549Z,63.77
2018-09-06T22:39:54.280Z,71.33
2018-09-06T22:42:38.408Z,65.00
2018-09-06T22:45:22.157Z,63.60
2018-09-06T22:48:05.986Z,72.93
2018-09-06T22:50:49.677Z,68.37
2018-09-06T22:53:34.266Z,65.73
2018-09-06T22:56:18.680Z,70.37
2018-09-06T22:59:02.890Z,65.43
2018-09-06T23:01:47.026Z,70.43
2018-09-06T23:04:31.144Z,72.00
2018-09-06T23:07:14.895Z,70.60
2018-09-06T23:09:59.082Z,67.17
2018-09-06T23:12:42.802Z,68.83
2018-09-06T23:15:26.750Z,68.40
2018-09-06T23:18:10.787Z,76.23
2018-09-06T23:20:55.194Z,63.37
2018-09-06T23:23:39.293Z,62.80
2018-09-06T23:26:23.360Z,62.97
2018-09-06T23:29:07.432Z,63.63
2018-09-06T23:31:51.835Z,63.10
2018-09-06T23:34:35.889Z,61.40
2018-09-06T23:37:19.923Z,63.63
2018-09-06T23:40:03.641Z,63.17
2018-09-06T23:42:47.365Z,60.50
2018-09-06T23:45:38.125Z,62.30
2018-09-06T23:48:24.211Z,61.20
2018-09-06T23:51:07.946Z,67.67
2018-09-06T23:53:52.575Z,68.87
2018-09-06T23:56:36.277Z,67.90
2018-09-06T23:59:20.181Z,65.97
